createdAt,value
2023-02-12T00:00:58.435Z,5.17
2023-02-12T00:01:58.478Z,5.17
2023-02-12T00:02:58.532Z,5.17
2023-02-12T00:03:58.691Z,5.17
2023-02-12T00:04:58.737Z,5.18
2023-02-12T00:05:58.853Z,5.17
2023-02-12T00:06:58.969Z,5.19
2023-02-12T00:07:59.068Z,5.17
2023-02-12T00:08:59.267Z,5.19
2023-02-12T00:09:59.480Z,5.21
2023-02-12T00:10:59.695Z,5.17
2023-02-12T00:12:00.309Z,5.22
2023-02-12T00:13:00.201Z,5.18
2023-02-12T00:14:00.436Z,5.19
2023-02-12T00:15:00.635Z,5.19
2023-02-12T00:16:00.982Z,5.18
2023-02-12T00:17:01.214Z,5.17
2023-02-12T00:18:01.440Z,5.17
2023-02-12T00:19:01.667Z,5.18
2023-02-12T00:20:01.953Z,5.18
2023-02-12T00:21:02.163Z,5.15
2023-02-12T00:22:02.385Z,5.15
2023-02-12T00:23:02.615Z,5.17
2023-02-12T00:24:02.858Z,5.14
2023-02-12T00:25:03.092Z,5.15
2023-02-12T00:26:03.328Z,5.14
2023-02-12T00:27:03.528Z,5.10
2023-02-12T00:28:03.768Z,5.11
2023-02-12T00:29:03.923Z,5.08
2023-02-12T00:30:04.153Z,5.06
2023-02-12T00:31:04.497Z,5.06
2023-02-12T00:32:04.620Z,5.06
2023-02-12T00:33:04.859Z,5.07
2023-02-12T00:34:05.080Z,5.08
2023-02-12T00:35:05.312Z,5.07
2023-02-12T00:36:05.534Z,5.08
2023-02-12T00:37:05.776Z,5.08
2023-02-12T00:38:05.995Z,5.07
2023-02-12T00:39:06.224Z,5.10
2023-02-12T00:40:06.447Z,5.08
2023-02-12T00:41:06.680Z,5.10
2023-02-12T00:42:06.897Z,5.10
2023-02-12T00:43:07.126Z,5.11
2023-02-12T00:44:07.361Z,5.14
2023-02-12T00:45:07.670Z,5.14
2023-02-12T00:46:07.994Z,5.10
2023-02-12T00:47:08.140Z,5.14
2023-02-12T01:16:15.411Z,4.97
2023-02-12T01:17:15.589Z,5.04
2023-02-12T01:18:15.806Z,5.06
2023-02-12T02:02:25.261Z,5.21
2023-02-12T02:03:25.562Z,5.21
2023-02-12T02:44:35.384Z,5.45
2023-02-12T02:45:35.597Z,5.42
2023-02-12T02:46:35.875Z,5.45
2023-02-12T02:47:36.075Z,5.45
2023-02-12T02:48:36.291Z,5.46
2023-02-12T02:49:36.521Z,5.47
2023-02-12T02:50:36.752Z,5.45
2023-02-12T02:51:37.803Z,5.42
2023-02-12T02:52:37.194Z,5.31
2023-02-12T02:53:37.179Z,5.38
2023-02-12T02:54:37.245Z,5.45
2023-02-12T02:55:37.308Z,5.42
2023-02-12T02:56:37.402Z,5.45
2023-02-12T02:57:37.509Z,5.43
2023-02-12T02:58:37.632Z,5.45
2023-02-12T02:59:37.725Z,5.46
2023-02-12T03:00:37.909Z,5.45
2023-02-12T03:01:37.967Z,5.46
2023-02-12T03:02:38.128Z,5.42
2023-02-12T03:04:38.336Z,5.43
2023-02-12T03:05:38.457Z,5.47
2023-02-12T03:45:45.260Z,5.35
2023-02-12T03:46:45.455Z,5.32
2023-02-12T03:47:45.691Z,5.29
2023-02-12T03:48:45.927Z,5.29
2023-02-12T03:49:46.161Z,5.27
2023-02-12T03:50:46.393Z,5.29
2023-02-12T03:51:46.683Z,5.31
2023-02-12T03:52:46.923Z,5.29
2023-02-12T03:53:47.143Z,5.27
2023-02-12T03:54:47.417Z,5.28
2023-02-12T04:32:55.246Z,5.02
2023-02-12T04:33:55.468Z,5.02
2023-02-12T04:34:55.703Z,5.02
2023-02-12T04:35:56.191Z,5.02
2023-02-12T04:36:56.153Z,5.02
2023-02-12T04:37:56.380Z,5.04
2023-02-12T04:38:56.615Z,5.02
2023-02-12T04:39:56.862Z,5.01
2023-02-12T04:40:57.104Z,5.00
2023-02-12T05:15:05.250Z,4.84
2023-02-12T05:16:05.568Z,4.80
2023-02-12T05:17:05.733Z,4.86
2023-02-12T05:18:05.980Z,4.80
2023-02-12T05:19:06.222Z,4.79
2023-02-12T05:20:06.482Z,4.83
2023-02-12T05:21:06.735Z,4.81
2023-02-12T05:22:06.974Z,4.83
2023-02-12T05:23:07.212Z,4.84
2023-02-12T05:24:07.472Z,4.83
2023-02-12T05:25:07.722Z,4.81
2023-02-12T05:26:07.967Z,4.79
2023-02-12T05:27:08.219Z,4.80
2023-02-12T05:28:08.506Z,4.79
2023-02-12T05:29:08.752Z,4.76
2023-02-12T05:30:08.995Z,4.77
2023-02-12T05:31:09.421Z,4.74
2023-02-12T05:32:09.584Z,4.72
2023-02-12T05:33:09.776Z,4.69
2023-02-12T05:34:10.057Z,4.69
2023-02-12T05:35:10.316Z,4.67
2023-02-12T05:36:10.586Z,4.66
2023-02-12T05:37:10.849Z,4.67
2023-02-12T05:38:11.107Z,4.65
2023-02-12T05:39:11.354Z,4.65
2023-02-12T05:40:11.601Z,4.63
2023-02-12T05:41:11.848Z,4.60
2023-02-12T05:42:12.097Z,4.60
2023-02-12T05:43:13.331Z,4.59
2023-02-12T05:44:12.459Z,4.59
2023-02-12T05:45:12.568Z,4.59
2023-02-12T05:46:12.694Z,4.56
2023-02-12T05:47:12.778Z,4.56
2023-02-12T05:48:12.901Z,4.53
2023-02-12T05:49:13.014Z,4.52
2023-02-12T05:50:13.120Z,4.49
2023-02-12T05:51:13.234Z,4.48
2023-02-12T05:52:13.494Z,4.45
2023-02-12T05:53:13.764Z,4.48
2023-02-12T05:54:14.026Z,4.47
2023-02-12T05:55:14.289Z,4.48
2023-02-12T05:56:14.558Z,4.47
2023-02-12T05:57:14.837Z,4.48
2023-02-12T05:58:16.121Z,4.47
2023-02-12T05:59:15.200Z,4.44
2023-02-12T06:00:15.310Z,4.47
2023-02-12T06:01:15.435Z,4.44
2023-02-12T06:02:15.560Z,4.44
2023-02-12T06:03:15.650Z,4.42
2023-02-12T06:04:15.785Z,4.44
2023-02-12T06:05:15.860Z,4.44
2023-02-12T06:06:15.966Z,4.45
2023-02-12T06:07:16.072Z,4.44
2023-02-12T06:08:16.174Z,4.45
2023-02-12T06:09:16.293Z,4.44
2023-02-12T06:10:16.402Z,4.41
2023-02-12T06:11:16.517Z,4.41
2023-02-12T06:12:16.633Z,4.38
2023-02-12T06:13:16.746Z,4.37
2023-02-12T06:14:16.865Z,4.38
2023-02-12T06:15:16.982Z,4.35
2023-02-12T06:16:17.171Z,4.35
2023-02-12T06:17:17.223Z,4.35
2023-02-12T06:18:17.352Z,4.32
2023-02-12T06:19:17.472Z,4.32
2023-02-12T06:20:17.583Z,4.32
2023-02-12T06:21:17.701Z,4.31
2023-02-12T06:22:17.825Z,4.30
2023-02-12T06:23:17.968Z,4.28
2023-02-12T06:24:18.081Z,4.24
2023-02-12T06:25:18.200Z,4.27
2023-02-12T06:26:18.325Z,4.25
2023-02-12T06:27:18.436Z,4.25
2023-02-12T06:28:18.656Z,4.25
2023-02-12T06:29:18.693Z,4.24
2023-02-12T06:30:18.857Z,4.22
2023-02-12T06:31:19.246Z,4.21
2023-02-12T06:32:19.555Z,4.20
2023-02-12T06:33:19.695Z,4.18
2023-02-12T06:34:19.979Z,4.18
2023-02-12T06:35:20.271Z,4.18
2023-02-12T06:36:20.533Z,4.17
2023-02-12T06:37:20.813Z,4.15
2023-02-12T06:38:21.285Z,4.15
2023-02-12T06:39:21.387Z,4.14
2023-02-12T06:40:21.660Z,4.13
2023-02-12T06:41:21.946Z,4.14
2023-02-12T06:42:22.224Z,4.11
2023-02-12T06:43:22.506Z,4.13
2023-02-12T06:44:22.791Z,4.11
2023-02-12T06:45:23.075Z,4.10
2023-02-12T06:46:23.394Z,4.11
2023-02-12T06:47:23.638Z,4.10
2023-02-12T06:48:23.924Z,4.13
2023-02-12T06:49:24.171Z,4.13
2023-02-12T06:50:24.431Z,4.14
2023-02-12T06:51:24.716Z,4.14
2023-02-12T06:52:24.993Z,4.14
2023-02-12T06:53:25.281Z,4.11
2023-02-12T06:54:25.557Z,4.11
2023-02-12T06:55:25.848Z,4.10
2023-02-12T06:56:26.120Z,4.11
2023-02-12T06:57:26.388Z,4.10
2023-02-12T06:58:26.668Z,4.10
2023-02-12T06:59:26.929Z,4.13
2023-02-12T07:00:27.233Z,4.15
2023-02-12T07:01:27.466Z,4.15
2023-02-12T07:02:27.730Z,4.14
2023-02-12T07:03:28.048Z,4.15
2023-02-12T07:04:28.278Z,4.14
2023-02-12T07:05:28.559Z,4.08
2023-02-12T07:06:28.815Z,4.11
2023-02-12T07:07:29.251Z,4.07
2023-02-12T07:08:29.365Z,4.10
2023-02-12T07:29:35.197Z,4.18
2023-02-12T07:30:35.485Z,4.18
2023-02-12T07:31:35.767Z,4.17
2023-02-12T07:32:36.014Z,4.17
2023-02-12T07:33:36.268Z,4.18
2023-02-12T07:34:36.546Z,4.17
2023-02-12T07:35:36.779Z,4.14
2023-02-12T07:36:36.991Z,4.14
2023-02-12T07:37:37.269Z,4.14
2023-02-12T07:38:37.547Z,4.15
2023-02-12T07:39:37.835Z,4.14
2023-02-12T07:40:38.081Z,4.14
2023-02-12T07:41:38.367Z,4.13
2023-02-12T07:42:38.635Z,4.13
2023-02-12T07:43:38.910Z,4.14
2023-02-12T08:13:45.295Z,3.90
2023-02-12T08:14:45.437Z,3.87
2023-02-12T08:15:45.582Z,3.80
2023-02-12T08:16:45.754Z,3.89
2023-02-12T08:17:45.839Z,3.97
2023-02-12T08:18:45.981Z,4.01
2023-02-12T08:19:46.118Z,3.92
2023-02-12T08:20:46.250Z,4.00
2023-02-12T08:21:46.390Z,4.05
2023-02-12T08:22:46.521Z,4.15
2023-02-12T09:18:55.299Z,6.31
2023-02-12T09:19:55.570Z,6.29
2023-02-12T09:20:55.753Z,6.35
2023-02-12T09:21:56.761Z,6.40
2023-02-12T09:22:56.028Z,6.43
2023-02-12T09:23:56.112Z,6.46
2023-02-12T09:24:56.198Z,6.49
2023-02-12T09:25:56.538Z,6.50
2023-02-12T09:26:56.369Z,6.54
2023-02-12T09:27:56.428Z,6.59
2023-02-12T09:28:56.519Z,6.49
2023-02-12T09:29:56.598Z,6.51
2023-02-12T09:30:56.784Z,6.59
2023-02-12T09:31:56.881Z,6.61
2023-02-12T09:32:56.775Z,6.70
2023-02-12T09:33:56.834Z,6.74
2023-02-12T09:34:56.893Z,6.77
2023-02-12T09:35:57.222Z,6.73
2023-02-12T09:36:56.999Z,6.77
2023-02-12T09:37:57.061Z,6.84
2023-02-12T09:38:57.095Z,6.87
2023-02-12T09:39:57.149Z,6.94
2023-02-12T09:40:57.217Z,6.94
2023-02-12T09:41:57.240Z,6.96
2023-02-12T09:42:57.288Z,6.98
2023-02-12T09:43:57.342Z,6.98
2023-02-12T09:44:57.369Z,7.03
2023-02-12T09:45:57.870Z,7.06
2023-02-12T09:46:57.448Z,7.08
2023-02-12T09:47:57.509Z,7.12
2023-02-12T09:48:57.516Z,7.13
2023-02-12T09:49:57.555Z,7.19
2023-02-12T09:50:57.591Z,7.20
2023-02-12T09:51:57.621Z,7.24
2023-02-12T09:52:57.661Z,7.16
2023-02-12T09:53:57.698Z,6.80
2023-02-12T09:54:57.737Z,6.99
2023-02-12T09:55:58.133Z,7.06
2023-02-12T09:56:57.802Z,7.03
2023-02-12T09:57:57.839Z,7.13
2023-02-12T09:58:57.914Z,7.19
2023-02-12T09:59:57.989Z,7.19
2023-02-12T10:00:58.048Z,7.29
2023-02-12T10:01:58.123Z,7.30
2023-02-12T10:02:58.180Z,7.31
2023-02-12T10:03:58.293Z,7.03
2023-02-12T10:05:01.990Z,6.83
2023-02-12T10:05:58.673Z,6.73
2023-02-12T10:06:58.358Z,6.80
2023-02-12T10:07:58.377Z,6.98
2023-02-12T10:08:58.401Z,6.95
2023-02-12T10:09:58.421Z,6.90
2023-02-12T10:10:58.440Z,6.87
2023-02-12T10:11:58.460Z,6.85
2023-02-12T10:12:58.474Z,6.92
2023-02-12T10:13:58.497Z,7.01
2023-02-12T10:14:58.523Z,7.12
2023-02-12T10:15:59.052Z,7.19
2023-02-12T10:16:58.557Z,7.16
2023-02-12T10:17:58.565Z,7.06
2023-02-12T10:18:58.580Z,7.22
2023-02-12T10:19:58.621Z,7.22
2023-02-12T10:20:59.158Z,7.27
2023-02-12T12:26:45.342Z,10.53
2023-02-12T12:27:45.516Z,10.53
2023-02-12T13:11:05.302Z,11.98
2023-02-12T13:12:05.449Z,12.11
2023-02-12T13:13:05.636Z,12.20
2023-02-12T13:14:05.761Z,12.28
2023-02-12T13:15:05.953Z,12.24
2023-02-12T13:16:06.141Z,12.36
2023-02-12T13:17:08.320Z,12.29
2023-02-12T13:18:06.235Z,12.29
2023-02-12T13:19:06.206Z,12.51
2023-02-12T13:20:06.169Z,12.49
2023-02-12T13:21:06.140Z,12.45
2023-02-12T13:22:06.113Z,12.56
2023-02-12T13:23:06.094Z,12.51
2023-02-12T13:24:06.074Z,12.62
2023-02-12T13:25:06.055Z,12.73
2023-02-12T13:26:06.045Z,12.66
2023-02-12T13:27:05.992Z,12.67
2023-02-12T13:28:06.005Z,12.66
2023-02-12T13:29:05.949Z,12.77
2023-02-12T13:30:05.918Z,12.82
2023-02-12T13:31:16.237Z,12.90
2023-02-12T13:32:06.964Z,12.82
2023-02-12T13:33:05.896Z,12.83
2023-02-12T13:34:05.822Z,12.86
2023-02-12T13:35:05.781Z,12.90
2023-02-12T13:36:05.753Z,12.93
2023-02-12T13:37:05.743Z,12.98
2023-02-12T13:38:05.703Z,13.07
2023-02-12T13:39:05.669Z,13.05
2023-02-12T13:40:05.642Z,13.24
2023-02-12T13:41:05.612Z,13.28
2023-02-12T13:42:05.588Z,13.32
2023-02-12T13:43:05.624Z,13.14
2023-02-12T13:44:06.268Z,13.24
2023-02-12T13:45:05.703Z,13.32
2023-02-12T13:46:05.732Z,13.21
2023-02-12T13:47:05.723Z,13.21
2023-02-12T13:48:05.830Z,13.04
2023-02-12T13:49:06.082Z,13.21
2023-02-12T13:50:06.273Z,13.18
2023-02-12T13:51:06.453Z,13.21
2023-02-12T13:52:06.632Z,13.08
2023-02-12T13:53:06.789Z,13.17
2023-02-12T13:54:07.774Z,12.93
2023-02-12T13:55:07.002Z,12.91
2023-02-12T13:56:07.049Z,12.97
2023-02-12T13:57:07.068Z,12.83
2023-02-12T13:58:07.063Z,12.76
2023-02-12T13:59:07.063Z,12.94
2023-02-12T14:00:07.060Z,12.86
2023-02-12T14:01:07.070Z,13.04
2023-02-12T14:02:07.154Z,12.98
2023-02-12T14:03:07.125Z,13.05
2023-02-12T14:04:07.153Z,13.07
2023-02-12T14:05:07.180Z,13.05
2023-02-12T14:06:07.230Z,12.90
2023-02-12T14:07:07.306Z,13.01
2023-02-12T14:08:07.313Z,12.94
2023-02-12T14:09:07.353Z,12.94
2023-02-12T14:10:07.389Z,12.84
2023-02-12T14:11:07.419Z,12.84
2023-02-12T14:12:07.439Z,13.05
2023-02-12T14:13:07.478Z,12.77
2023-02-12T14:14:07.478Z,12.75
2023-02-12T14:15:08.268Z,12.56
2023-02-12T14:16:07.502Z,12.66
2023-02-12T14:17:07.477Z,12.73
2023-02-12T14:18:07.465Z,12.75
2023-02-12T14:19:07.502Z,12.83
2023-02-12T14:20:07.517Z,12.60
2023-02-12T14:21:07.520Z,12.55
2023-02-12T14:22:07.513Z,12.69
2023-02-12T14:23:07.493Z,12.76
2023-02-12T14:24:07.546Z,12.84
2023-02-12T14:25:07.507Z,12.80
2023-02-12T14:26:07.493Z,12.75
2023-02-12T14:27:07.514Z,12.93
2023-02-12T14:28:07.605Z,12.91
2023-02-12T14:29:07.586Z,13.03
2023-02-12T14:30:07.634Z,12.96
2023-02-12T14:31:07.705Z,12.97
2023-02-12T14:32:07.698Z,12.83
2023-02-12T14:33:07.743Z,12.98
2023-02-12T14:34:07.868Z,13.07
2023-02-12T14:35:07.841Z,13.03
2023-02-12T14:36:07.860Z,12.93
2023-02-12T14:37:07.864Z,12.97
2023-02-12T14:38:07.870Z,12.86
2023-02-12T14:39:07.860Z,12.70
2023-02-12T14:40:07.841Z,12.66
2023-02-12T14:41:08.279Z,12.66
2023-02-12T14:42:07.803Z,12.69
2023-02-12T14:43:07.786Z,12.64
2023-02-12T14:44:07.763Z,12.57
2023-02-12T14:45:07.754Z,12.48
2023-02-12T14:46:07.774Z,12.56
2023-02-12T14:47:07.739Z,12.34
2023-02-12T14:48:07.752Z,12.21
2023-02-12T14:49:07.765Z,12.10
2023-02-12T14:50:07.835Z,12.18
2023-02-12T14:51:08.292Z,12.13
2023-02-12T14:52:07.866Z,12.05
2023-02-12T14:53:07.884Z,12.13
2023-02-12T14:54:07.890Z,12.07
2023-02-12T14:55:07.900Z,11.89
2023-02-12T14:56:07.922Z,12.00
2023-02-12T14:57:07.936Z,11.90
2023-02-12T14:58:07.961Z,11.82
2023-02-12T14:59:07.987Z,11.87
2023-02-12T15:00:08.018Z,11.82
2023-02-12T15:01:08.048Z,11.72
2023-02-12T15:02:08.096Z,11.51
2023-02-12T15:03:08.154Z,11.55
2023-02-12T15:04:08.205Z,11.45
2023-02-12T15:05:08.334Z,11.62
2023-02-12T15:06:08.340Z,11.66
2023-02-12T15:07:08.416Z,11.69
2023-02-12T15:08:08.450Z,11.61
2023-02-12T15:09:08.512Z,11.58
2023-02-12T15:10:08.564Z,11.62
2023-02-12T15:11:08.627Z,11.59
2023-02-12T15:12:08.669Z,11.65
2023-02-12T15:13:08.720Z,11.65
2023-02-12T15:14:08.740Z,11.52
2023-02-12T15:15:08.808Z,11.55
2023-02-12T15:16:09.030Z,11.56
2023-02-12T15:17:08.905Z,11.28
2023-02-12T15:18:08.965Z,11.21
2023-02-12T15:19:09.009Z,11.30
2023-02-12T15:20:09.294Z,11.24
2023-02-12T15:21:09.126Z,11.37
2023-02-12T15:22:09.179Z,11.37
2023-02-12T15:23:09.211Z,11.37
2023-02-12T15:24:09.314Z,11.37
2023-02-12T15:25:09.318Z,11.32
2023-02-12T15:26:09.377Z,11.35
2023-02-12T15:27:09.435Z,11.38
2023-02-12T15:28:09.511Z,11.30
2023-02-12T15:29:09.536Z,11.20
2023-02-12T15:30:12.441Z,11.14
2023-02-12T15:32:09.557Z,11.11
2023-02-12T15:33:09.572Z,11.07
2023-02-12T15:34:09.567Z,11.07
2023-02-12T15:35:09.568Z,11.08
2023-02-12T15:36:09.576Z,11.15
2023-02-12T15:37:09.592Z,11.15
2023-02-12T15:38:09.603Z,11.15
2023-02-12T15:39:09.575Z,11.18
2023-02-12T15:40:09.704Z,11.18
2023-02-12T15:41:09.649Z,11.18
2023-02-12T15:42:09.692Z,11.15
2023-02-12T15:43:09.720Z,11.11
2023-02-12T15:44:09.813Z,11.11
2023-02-12T15:45:09.971Z,11.06
2023-02-12T15:46:10.197Z,11.06
2023-02-12T15:47:10.303Z,11.06
2023-02-12T15:48:10.466Z,11.06
2023-02-12T16:15:15.340Z,10.40
2023-02-12T16:16:15.603Z,10.38
2023-02-12T16:17:15.735Z,10.33
2023-02-12T16:18:15.926Z,10.27
2023-02-12T16:19:16.137Z,10.25
2023-02-12T16:20:16.347Z,10.21
2023-02-12T16:21:16.542Z,10.17
2023-02-12T16:22:16.762Z,10.14
2023-02-12T16:23:16.942Z,10.11
2023-02-12T16:24:17.140Z,10.06
2023-02-12T16:25:17.354Z,10.06
2023-02-12T16:26:17.535Z,9.97
2023-02-12T16:27:17.733Z,9.97
2023-02-12T16:28:18.081Z,9.92
2023-02-12T16:29:18.134Z,9.86
2023-02-12T16:30:18.339Z,9.86
2023-02-12T16:31:18.524Z,9.82
2023-02-12T16:32:18.516Z,9.81
2023-02-12T16:33:19.297Z,9.79
2023-02-12T16:34:18.662Z,9.78
2023-02-12T16:35:18.745Z,9.73
2023-02-12T16:36:18.832Z,9.73
2023-02-12T16:37:18.899Z,9.72
2023-02-12T16:38:18.984Z,9.68
2023-02-12T16:39:19.072Z,9.66
2023-02-12T16:40:19.157Z,9.63
2023-02-12T16:41:19.246Z,9.62
2023-02-12T16:42:19.353Z,9.57
2023-02-12T16:43:19.444Z,9.52
2023-02-12T16:44:19.551Z,9.48
2023-02-12T16:45:19.706Z,9.45
2023-02-12T16:46:19.741Z,9.40
2023-02-12T16:47:19.847Z,9.40
2023-02-12T16:48:19.938Z,9.35
2023-02-12T16:49:20.038Z,9.30
2023-02-12T16:50:20.136Z,9.27
2023-02-12T16:51:20.231Z,9.19
2023-02-12T16:52:21.302Z,9.17
2023-02-12T16:53:20.421Z,9.09
2023-02-12T16:54:20.495Z,9.07
2023-02-12T16:55:20.576Z,9.04
2023-02-12T16:56:20.634Z,9.00
2023-02-12T16:57:20.697Z,8.98
2023-02-12T16:58:20.812Z,8.93
2023-02-12T16:59:20.805Z,8.87
2023-02-12T17:00:20.869Z,8.86
2023-02-12T17:01:20.949Z,8.82
2023-02-12T17:02:20.965Z,8.79
2023-02-12T17:03:21.131Z,8.76
2023-02-12T17:04:21.077Z,8.75
2023-02-12T17:05:21.163Z,8.74
2023-02-12T17:06:21.395Z,8.67
2023-02-12T17:07:21.254Z,8.65
2023-02-12T17:08:21.330Z,8.61
2023-02-12T17:09:21.399Z,8.60
2023-02-12T17:10:21.477Z,8.55
2023-02-12T17:11:21.555Z,8.51
2023-02-12T17:12:21.622Z,8.52
2023-02-12T17:13:21.700Z,8.48
2023-02-12T17:14:21.869Z,8.45
2023-02-12T17:15:21.937Z,8.45
2023-02-12T17:16:31.328Z,8.40
2023-02-12T17:17:23.079Z,8.41
2023-02-12T17:18:22.126Z,8.37
2023-02-12T17:19:22.198Z,8.36
2023-02-12T17:20:22.252Z,8.34
2023-02-12T17:21:22.314Z,8.34
2023-02-12T17:22:22.369Z,8.34
2023-02-12T17:23:22.427Z,8.36
2023-02-12T17:24:22.488Z,8.34
2023-02-12T17:25:22.532Z,8.34
2023-02-12T17:26:22.590Z,8.34
2023-02-12T17:27:22.647Z,8.30
2023-02-12T17:28:22.818Z,8.27
2023-02-12T17:29:22.773Z,8.26
2023-02-12T17:30:22.833Z,8.26
2023-02-12T17:31:22.984Z,8.24
2023-02-12T17:32:22.972Z,8.22
2023-02-12T17:33:23.032Z,8.19
2023-02-12T17:34:23.093Z,8.14
2023-02-12T17:35:23.149Z,8.12
2023-02-12T17:36:23.387Z,8.09
2023-02-12T17:37:23.279Z,8.06
2023-02-12T17:38:25.399Z,8.05
2023-02-12T17:39:23.411Z,8.00
2023-02-12T17:40:23.467Z,8.00
2023-02-12T17:41:23.533Z,8.00
2023-02-12T17:42:23.591Z,7.96
2023-02-12T17:43:23.655Z,7.95
2023-02-12T17:44:23.748Z,7.95
2023-02-12T17:45:23.797Z,7.99
2023-02-12T17:46:23.857Z,7.99
2023-02-12T17:47:23.918Z,7.98
2023-02-12T17:48:23.969Z,7.96
2023-02-12T17:49:24.033Z,7.95
2023-02-12T17:50:24.160Z,7.99
2023-02-12T17:51:24.166Z,7.93
2023-02-12T17:52:24.212Z,7.89
2023-02-12T17:53:24.273Z,7.89
2023-02-12T18:04:25.305Z,7.68
2023-02-12T18:05:25.172Z,7.68
2023-02-12T18:06:25.257Z,7.65
2023-02-12T18:07:26.315Z,7.64
2023-02-12T18:08:25.393Z,7.60
2023-02-12T18:09:25.467Z,7.58
2023-02-12T18:10:25.524Z,7.54
2023-02-12T18:11:25.602Z,7.53
2023-02-12T18:12:25.679Z,7.51
2023-02-12T18:13:25.742Z,7.51
2023-02-12T18:14:25.810Z,7.47
2023-02-12T18:15:25.892Z,7.43
2023-02-12T18:16:25.966Z,7.44
2023-02-12T18:17:26.026Z,7.43
2023-02-12T18:18:26.089Z,7.43
2023-02-12T18:19:26.169Z,7.43
2023-02-12T18:20:26.228Z,7.42
2023-02-12T18:21:26.305Z,7.42
2023-02-12T18:22:26.393Z,7.40
2023-02-12T18:23:26.453Z,7.36
2023-02-12T18:24:26.531Z,7.33
2023-02-12T18:25:26.598Z,7.34
2023-02-12T18:26:26.697Z,7.31
2023-02-12T18:27:26.757Z,7.27
2023-02-12T18:28:26.927Z,7.23
2023-02-12T18:29:26.895Z,7.22
2023-02-12T18:30:27.132Z,7.20
2023-02-12T18:31:27.230Z,7.16
2023-02-12T18:32:27.254Z,7.15
2023-02-12T18:33:27.534Z,7.12
2023-02-12T18:34:27.543Z,7.12
2023-02-12T18:35:27.628Z,7.13
2023-02-12T18:36:27.781Z,7.09
2023-02-12T18:37:27.921Z,7.09
2023-02-12T18:38:28.054Z,7.09
2023-02-12T18:39:28.203Z,7.11
2023-02-12T18:40:28.334Z,7.08
2023-02-12T18:41:28.485Z,7.09
2023-02-12T18:42:28.655Z,7.08
2023-02-12T18:43:28.784Z,7.08
2023-02-12T18:44:28.926Z,7.06
2023-02-12T18:45:29.054Z,7.06
2023-02-12T18:46:29.249Z,7.08
2023-02-12T18:47:29.338Z,7.05
2023-02-12T18:48:29.473Z,7.06
2023-02-12T18:49:29.640Z,7.05
2023-02-12T18:50:29.751Z,7.05
2023-02-12T18:51:29.905Z,7.05
2023-02-12T18:52:29.995Z,7.03
2023-02-12T18:53:30.101Z,7.05
2023-02-12T18:54:30.339Z,6.98
2023-02-12T18:55:30.466Z,6.96
2023-02-12T18:56:30.651Z,6.92
2023-02-12T18:57:30.830Z,6.95
2023-02-12T18:58:31.018Z,6.94
2023-02-12T18:59:31.195Z,6.92
2023-02-12T19:00:31.376Z,6.91
2023-02-12T19:01:31.895Z,6.91
2023-02-12T19:03:32.192Z,6.91
2023-02-12T19:15:35.237Z,6.66
2023-02-12T19:16:35.420Z,6.60
2023-02-12T19:17:36.253Z,6.59
2023-02-12T19:18:35.750Z,6.59
2023-02-12T19:19:36.341Z,6.56
2023-02-12T19:20:35.941Z,6.57
2023-02-12T19:21:36.043Z,6.53
2023-02-12T19:22:36.127Z,6.54
2023-02-12T19:23:36.206Z,6.50
2023-02-12T19:24:46.349Z,6.49
2023-02-12T19:26:36.450Z,6.44
2023-02-12T19:27:36.536Z,6.44
2023-02-12T19:28:36.639Z,6.44
2023-02-12T19:29:36.773Z,6.44
2023-02-12T19:30:36.857Z,6.40
2023-02-12T19:31:37.221Z,6.42
2023-02-12T19:32:37.044Z,6.39
2023-02-12T19:33:37.113Z,6.37
2023-02-12T19:34:37.191Z,6.39
2023-02-12T19:35:37.278Z,6.37
2023-02-12T19:36:37.384Z,6.36
2023-02-12T19:37:37.462Z,6.35
2023-02-12T19:38:37.542Z,6.36
2023-02-12T19:39:37.613Z,6.35
2023-02-12T19:40:37.707Z,6.32
2023-02-12T19:41:37.780Z,6.33
2023-02-12T19:42:37.875Z,6.32
2023-02-12T19:43:37.976Z,6.28
2023-02-12T19:44:38.060Z,6.28
2023-02-12T19:45:38.148Z,6.25
2023-02-12T19:46:38.227Z,6.25
2023-02-12T19:47:38.321Z,6.23
2023-02-12T19:48:38.406Z,6.21
2023-02-12T19:49:38.487Z,6.22
2023-02-12T19:50:38.585Z,6.16
2023-02-12T19:51:38.666Z,6.14
2023-02-12T19:52:38.759Z,6.12
2023-02-12T19:53:38.842Z,6.12
2023-02-12T19:54:38.933Z,6.11
2023-02-12T19:55:39.028Z,6.12
2023-02-12T19:56:39.108Z,6.12
2023-02-12T20:43:45.225Z,5.77
2023-02-12T20:44:45.428Z,5.75
2023-02-12T20:45:45.644Z,5.71
2023-02-12T20:46:45.969Z,5.74
2023-02-12T20:47:46.223Z,5.71
2023-02-12T20:48:46.500Z,5.74
2023-02-12T20:49:46.744Z,5.74
2023-02-12T20:50:47.013Z,5.71
2023-02-12T20:51:47.282Z,5.64
2023-02-12T20:52:47.572Z,5.64
2023-02-12T20:53:47.851Z,5.53
2023-02-12T20:54:48.117Z,5.54
2023-02-12T21:42:55.230Z,5.15
2023-02-12T21:43:55.383Z,5.12
2023-02-12T21:44:55.540Z,4.95
2023-02-12T21:45:55.697Z,4.88
2023-02-12T21:46:55.801Z,4.88
2023-02-12T21:47:55.953Z,4.87
2023-02-12T21:48:56.113Z,4.69
2023-02-12T21:49:56.261Z,4.86
2023-02-12T21:50:56.746Z,4.93
2023-02-12T21:51:56.573Z,4.93
2023-02-12T21:52:56.736Z,5.07
2023-02-12T22:50:05.270Z,5.25
2023-02-12T22:51:05.461Z,5.32
2023-02-12T22:52:05.668Z,5.28
2023-02-12T22:53:05.873Z,5.29
2023-02-12T22:54:06.095Z,5.32
2023-02-12T22:55:06.289Z,5.28
2023-02-12T22:56:06.497Z,5.32
2023-02-12T22:57:06.689Z,5.27
2023-02-12T22:58:07.039Z,5.18
2023-02-12T22:59:07.290Z,5.15
2023-02-12T23:00:07.513Z,5.27
2023-02-12T23:01:07.801Z,5.21
2023-02-12T23:02:07.918Z,5.29
2023-02-12T23:03:08.095Z,5.28
2023-02-12T23:04:08.402Z,5.27
2023-02-12T23:05:08.565Z,5.32
2023-02-12T23:06:08.739Z,5.28
2023-02-12T23:07:08.917Z,5.25
2023-02-12T23:32:15.280Z,5.35
2023-02-12T23:33:15.529Z,5.32
2023-02-12T23:34:15.788Z,5.32
2023-02-12T23:35:16.045Z,5.29
2023-02-12T23:36:16.276Z,5.28
2023-02-12T23:37:16.511Z,5.27
2023-02-12T23:38:16.741Z,5.27
2023-02-12T23:39:16.981Z,5.25
2023-02-12T23:40:17.170Z,5.21
2023-02-12T23:41:17.404Z,5.08
2023-02-12T23:42:17.623Z,5.10
2023-02-12T23:43:17.875Z,5.10
